Time;durP1;ratioP1;P1;durP2;ratioP2;P2;SDS_P1;SDS_P2;PMS_P1;PMS_P2;Temp;Humidity;BMP_temperature;BMP_pressure;BME280_temperature;BME280_humidity;BME280_pressure;Samples;Min_cycle;Max_cycle;Signal;HPM_P1;HPM_P2
2023/10/27 00:00:07;;;;;;;60.03;30.70;;;10.70;99.90;;;;;;4988093;28;20105;-69
2023/10/27 00:02:38;;;;;;;57.53;29.95;;;10.70;99.90;;;;;;4989093;28;20030;-68
2023/10/27 00:05:04;;;;;;;55.92;28.42;;;10.70;99.90;;;;;;4989562;28;20065;-68
2023/10/27 00:07:30;;;;;;;55.55;27.98;;;10.70;99.90;;;;;;4986451;28;20088;-68
2023/10/27 00:09:55;;;;;;;58.33;28.55;;;10.80;99.90;;;;;;4985852;28;20026;-69
2023/10/27 00:12:21;;;;;;;63.70;30.10;;;10.80;99.90;;;;;;4976222;28;20147;-68
2023/10/27 00:14:46;;;;;;;59.53;29.92;;;10.80;99.90;;;;;;4991157;28;20057;-68
2023/10/27 00:17:12;;;;;;;53.30;27.90;;;10.80;99.90;;;;;;5004459;28;20030;-69
2023/10/27 00:19:37;;;;;;;57.72;28.13;;;10.80;99.90;;;;;;4986095;28;20042;-69
2023/10/27 00:22:03;;;;;;;56.78;26.67;;;10.80;99.90;;;;;;4988572;28;20019;-68
2023/10/27 00:24:28;;;;;;;64.13;30.58;;;10.80;99.90;;;;;;4988503;28;20022;-69
2023/10/27 00:26:54;;;;;;;60.50;28.45;;;10.80;99.90;;;;;;4988856;28;20038;-68
2023/10/27 00:29:19;;;;;;;52.95;28.55;;;10.80;99.90;;;;;;4988171;28;20513;-69
2023/10/27 00:31:45;;;;;;;56.15;26.95;;;10.80;99.90;;;;;;4988169;28;20033;-69
2023/10/27 00:34:10;;;;;;;56.72;27.38;;;10.80;99.90;;;;;;4988130;28;20037;-68
2023/10/27 00:36:36;;;;;;;57.47;27.83;;;10.80;99.90;;;;;;4988711;28;20538;-68
2023/10/27 00:39:02;;;;;;;57.25;28.88;;;10.80;99.90;;;;;;4986142;28;20480;-68
2023/10/27 00:41:28;;;;;;;55.58;27.45;;;10.80;99.90;;;;;;4990587;28;20117;-68
2023/10/27 00:43:53;;;;;;;62.75;30.65;;;10.80;99.90;;;;;;4982193;28;20134;-68
2023/10/27 00:46:19;;;;;;;52.53;27.65;;;10.80;99.90;;;;;;4987818;28;20062;-68
2023/10/27 00:48:44;;;;;;;58.50;27.05;;;10.80;99.90;;;;;;4986326;28;20042;-68
2023/10/27 00:51:11;;;;;;;59.60;27.70;;;10.80;99.90;;;;;;4988118;28;20429;-69
2023/10/27 00:53:38;;;;;;;55.92;27.60;;;10.80;99.90;;;;;;4988994;28;20027;-68
2023/10/27 00:56:04;;;;;;;59.75;29.13;;;10.80;99.90;;;;;;4987483;28;20450;-68
2023/10/27 00:58:31;;;;;;;61.97;27.67;;;10.80;99.90;;;;;;4987638;28;20117;-68
2023/10/27 01:01:02;;;;;;;60.45;28.10;;;10.90;99.90;;;;;;4988401;28;20056;-69
2023/10/27 01:03:29;;;;;;;58.20;29.15;;;10.90;99.90;;;;;;4989602;28;20033;-68
2023/10/27 01:05:55;;;;;;;65.93;30.98;;;10.90;99.90;;;;;;4982147;28;20039;-68
2023/10/27 01:08:20;;;;;;;60.65;28.73;;;10.90;99.90;;;;;;4985591;28;20047;-69
2023/10/27 01:10:46;;;;;;;61.88;29.60;;;10.90;99.90;;;;;;4989741;28;20057;-68
2023/10/27 01:13:12;;;;;;;58.08;29.17;;;10.80;99.90;;;;;;5034671;28;20048;-68
2023/10/27 01:15:37;;;;;;;56.85;27.00;;;10.90;99.90;;;;;;4991064;28;20069;-69
2023/10/27 01:18:03;;;;;;;56.22;28.05;;;10.90;99.90;;;;;;4987624;28;20518;-68
2023/10/27 01:20:28;;;;;;;58.65;26.95;;;10.90;99.90;;;;;;4989091;28;20026;-68
2023/10/27 01:22:54;;;;;;;56.90;28.40;;;10.90;99.90;;;;;;4988422;28;20417;-68
2023/10/27 01:25:19;;;;;;;57.88;28.20;;;10.90;99.90;;;;;;4987486;28;20073;-69
2023/10/27 01:27:45;;;;;;;65.63;28.30;;;10.90;99.90;;;;;;4986943;28;20050;-69
2023/10/27 01:30:11;;;;;;;58.33;26.95;;;10.80;99.90;;;;;;4987376;28;20061;-68
2023/10/27 01:32:37;;;;;;;59.13;26.75;;;10.90;99.90;;;;;;5006293;28;20440;-68
2023/10/27 01:35:03;;;;;;;62.22;29.58;;;10.90;99.90;;;;;;4987347;28;20042;-68
2023/10/27 01:37:29;;;;;;;58.83;27.55;;;10.90;99.90;;;;;;4985376;28;20022;-69
2023/10/27 01:39:56;;;;;;;64.65;28.30;;;10.90;99.90;;;;;;4988521;28;20035;-69
2023/10/27 01:42:22;;;;;;;57.00;26.50;;;10.80;99.90;;;;;;4993870;28;20038;-69
2023/10/27 01:44:48;;;;;;;54.92;26.02;;;10.90;99.90;;;;;;5002305;28;20049;-69
2023/10/27 01:47:13;;;;;;;61.50;27.58;;;10.90;99.90;;;;;;4990047;28;20034;-68
2023/10/27 01:49:39;;;;;;;61.03;28.33;;;10.80;99.90;;;;;;4983953;28;20027;-68
2023/10/27 01:52:05;;;;;;;60.90;27.48;;;10.90;99.90;;;;;;4989865;28;20066;-69
2023/10/27 01:54:30;;;;;;;65.57;29.05;;;10.90;99.90;;;;;;5035517;28;20153;-69
2023/10/27 01:56:55;;;;;;;62.47;27.35;;;10.90;99.90;;;;;;4990631;28;20035;-69
2023/10/27 01:59:21;;;;;;;67.53;27.88;;;10.90;99.90;;;;;;4988060;28;20030;-69
2023/10/27 02:01:46;;;;;;;64.25;26.58;;;10.90;99.90;;;;;;4990135;28;20030;-69
2023/10/27 02:04:12;;;;;;;66.20;28.98;;;10.90;99.90;;;;;;4990502;28;20041;-69
2023/10/27 02:06:38;;;;;;;62.63;26.92;;;10.90;99.90;;;;;;4990916;28;20059;-68
2023/10/27 02:09:03;;;;;;;71.75;29.33;;;10.90;99.90;;;;;;4989066;28;20038;-69
2023/10/27 02:11:29;;;;;;;59.78;26.63;;;10.90;99.90;;;;;;4995326;28;20033;-68
2023/10/27 02:13:54;;;;;;;66.95;27.15;;;10.90;99.90;;;;;;4990467;28;20083;-68
2023/10/27 02:16:20;;;;;;;55.88;25.58;;;11.00;99.90;;;;;;4987711;28;20050;-69
2023/10/27 02:18:45;;;;;;;50.92;24.48;;;10.90;99.90;;;;;;4997409;28;20030;-68
2023/10/27 02:21:11;;;;;;;50.65;23.83;;;11.00;99.90;;;;;;4983790;28;20027;-69
2023/10/27 02:23:36;;;;;;;54.25;24.20;;;11.00;99.90;;;;;;4981942;28;20037;-69
2023/10/27 02:26:02;;;;;;;50.53;23.60;;;11.00;99.90;;;;;;4993241;28;20034;-68
2023/10/27 02:28:27;;;;;;;48.22;24.08;;;11.00;99.90;;;;;;4991545;28;20080;-68
2023/10/27 02:30:53;;;;;;;48.70;24.88;;;11.00;99.90;;;;;;4989590;28;20054;-69
2023/10/27 02:33:18;;;;;;;45.53;25.85;;;11.00;99.90;;;;;;4998357;28;20034;-69
2023/10/27 02:35:44;;;;;;;47.83;23.73;;;11.00;99.90;;;;;;4990216;28;20038;-68
2023/10/27 02:38:09;;;;;;;41.22;21.88;;;11.00;99.90;;;;;;4982938;28;20114;-68
2023/10/27 02:40:35;;;;;;;38.72;20.30;;;11.00;99.90;;;;;;4987589;28;20381;-68
2023/10/27 02:43:01;;;;;;;48.95;30.38;;;11.00;99.90;;;;;;4988771;28;20042;-69
2023/10/27 02:45:26;;;;;;;42.72;22.92;;;11.00;99.90;;;;;;4989321;28;20026;-68
2023/10/27 02:47:52;;;;;;;42.53;22.10;;;11.00;99.90;;;;;;4989247;28;20042;-68
2023/10/27 02:50:17;;;;;;;39.53;19.42;;;11.00;99.90;;;;;;4988369;28;20096;-68
2023/10/27 02:52:43;;;;;;;41.67;19.58;;;11.00;99.90;;;;;;4990059;28;20042;-68
2023/10/27 02:55:09;;;;;;;35.47;17.88;;;11.00;99.90;;;;;;4989067;28;20442;-68
2023/10/27 02:57:34;;;;;;;34.95;16.98;;;11.00;99.90;;;;;;4991705;28;20057;-68
2023/10/27 03:00:00;;;;;;;40.88;18.80;;;11.00;99.90;;;;;;5008746;28;20026;-68
2023/10/27 03:02:27;;;;;;;38.90;17.85;;;11.00;99.90;;;;;;4985820;28;20050;-68
2023/10/27 03:04:55;;;;;;;41.72;19.33;;;11.00;99.90;;;;;;4990494;28;20486;-68
2023/10/27 03:07:20;;;;;;;36.70;18.40;;;11.00;99.90;;;;;;4987944;28;20467;-68
2023/10/27 03:09:46;;;;;;;34.00;17.15;;;11.00;99.90;;;;;;5003405;28;20042;-68
2023/10/27 03:12:12;;;;;;;39.05;18.05;;;11.00;99.90;;;;;;4988986;28;20437;-68
2023/10/27 03:14:37;;;;;;;38.45;18.55;;;11.00;99.90;;;;;;4989034;28;20026;-68
2023/10/27 03:17:03;;;;;;;36.13;17.05;;;11.00;99.90;;;;;;4981617;28;20100;-68
2023/10/27 03:19:29;;;;;;;35.28;16.65;;;11.00;99.90;;;;;;4992061;28;20030;-69
2023/10/27 03:21:54;;;;;;;33.08;17.08;;;11.00;99.90;;;;;;4982310;28;20106;-69
2023/10/27 03:24:20;;;;;;;37.63;16.98;;;11.00;99.90;;;;;;5006622;28;20038;-68
2023/10/27 03:26:45;;;;;;;32.47;16.42;;;11.00;99.90;;;;;;4989914;28;20022;-68
2023/10/27 03:29:11;;;;;;;33.33;16.67;;;11.00;99.90;;;;;;4991592;28;20060;-69
2023/10/27 03:31:36;;;;;;;39.00;17.40;;;11.00;99.90;;;;;;4987393;28;20370;-68
2023/10/27 03:34:02;;;;;;;35.30;16.77;;;11.00;99.90;;;;;;4988573;28;20033;-69
2023/10/27 03:36:28;;;;;;;39.15;17.00;;;11.10;99.90;;;;;;4987459;28;20026;-68
2023/10/27 03:38:53;;;;;;;33.55;15.55;;;11.00;99.90;;;;;;5017569;28;20493;-68
2023/10/27 03:41:19;;;;;;;36.20;15.25;;;11.10;99.90;;;;;;4990316;28;20027;-69
2023/10/27 03:43:45;;;;;;;37.33;15.52;;;11.10;99.90;;;;;;4988833;28;20528;-68
2023/10/27 03:46:10;;;;;;;39.03;16.40;;;11.10;99.90;;;;;;4988760;28;20035;-69
2023/10/27 03:48:36;;;;;;;35.90;14.60;;;11.10;99.90;;;;;;4986549;28;20501;-68
2023/10/27 03:51:06;;;;;;;36.40;16.75;;;11.10;99.90;;;;;;4985698;28;20495;-68
2023/10/27 03:53:32;;;;;;;35.28;15.63;;;11.10;99.90;;;;;;4988357;28;20052;-68
2023/10/27 03:55:58;;;;;;;32.80;14.93;;;11.10;99.90;;;;;;4989827;28;20023;-69
2023/10/27 03:58:23;;;;;;;39.92;15.48;;;11.10;99.90;;;;;;4988834;28;20110;-68
2023/10/27 04:00:49;;;;;;;37.63;16.48;;;11.10;99.90;;;;;;4987310;28;20060;-69
2023/10/27 04:03:14;;;;;;;38.15;17.42;;;11.10;99.90;;;;;;4986922;28;20492;-69
2023/10/27 04:05:40;;;;;;;33.97;14.57;;;11.10;99.90;;;;;;4989124;28;20026;-68
2023/10/27 04:08:06;;;;;;;35.05;15.65;;;11.10;99.90;;;;;;4988295;28;20046;-68
2023/10/27 04:10:33;;;;;;;37.85;16.45;;;11.10;99.90;;;;;;4988627;28;20539;-68
2023/10/27 04:12:59;;;;;;;36.85;15.18;;;11.10;99.90;;;;;;4985583;28;20030;-68
2023/10/27 04:15:25;;;;;;;33.25;14.55;;;11.10;99.90;;;;;;4989200;28;20026;-69
2023/10/27 04:17:51;;;;;;;37.05;15.40;;;11.10;99.90;;;;;;4981840;28;20023;-68
2023/10/27 04:20:16;;;;;;;36.45;15.02;;;11.10;99.90;;;;;;4988312;28;20470;-69
2023/10/27 04:22:42;;;;;;;43.28;17.58;;;11.10;99.90;;;;;;4989874;28;20484;-68
2023/10/27 04:25:09;;;;;;;34.22;15.25;;;11.10;99.90;;;;;;4987738;28;20038;-69
2023/10/27 04:27:36;;;;;;;57.28;16.70;;;11.10;99.90;;;;;;4978114;28;20070;-69
2023/10/27 04:30:07;;;;;;;33.38;14.75;;;11.10;99.90;;;;;;4989285;28;20027;-68
2023/10/27 04:32:34;;;;;;;36.20;14.93;;;11.20;99.90;;;;;;4986887;28;20046;-69
2023/10/27 04:35:00;;;;;;;34.97;14.60;;;11.20;99.90;;;;;;5029680;28;20488;-68
2023/10/27 04:37:27;;;;;;;36.97;14.90;;;11.20;99.90;;;;;;5055069;28;20067;-68
2023/10/27 04:39:54;;;;;;;44.63;15.32;;;11.10;99.90;;;;;;5001484;28;20463;-69
2023/10/27 04:42:20;;;;;;;35.88;15.52;;;11.20;99.90;;;;;;4987259;28;20129;-69
2023/10/27 04:44:46;;;;;;;41.60;15.95;;;11.20;99.90;;;;;;4989882;28;20030;-69
2023/10/27 04:47:11;;;;;;;46.30;17.13;;;11.20;99.90;;;;;;4986928;28;20030;-69
2023/10/27 04:49:37;;;;;;;32.05;14.50;;;11.20;99.90;;;;;;4989057;28;20031;-68
2023/10/27 04:52:02;;;;;;;41.40;15.77;;;11.20;99.90;;;;;;4986036;28;20026;-68
2023/10/27 04:54:28;;;;;;;32.08;15.00;;;11.20;99.90;;;;;;4987144;28;20038;-68
2023/10/27 04:56:53;;;;;;;30.83;13.73;;;11.20;99.90;;;;;;4988702;28;20038;-68
2023/10/27 04:59:19;;;;;;;30.05;13.63;;;11.20;99.90;;;;;;4988298;28;20030;-68
2023/10/27 05:01:45;;;;;;;32.38;14.70;;;11.20;99.90;;;;;;4993991;28;20468;-68
2023/10/27 05:04:10;;;;;;;35.03;14.45;;;11.20;99.90;;;;;;4986289;28;20030;-69
2023/10/27 05:06:36;;;;;;;35.35;15.15;;;11.20;99.90;;;;;;4988412;28;20034;-68
2023/10/27 05:09:01;;;;;;;37.15;14.95;;;11.20;99.90;;;;;;4987033;28;20057;-68
2023/10/27 05:11:27;;;;;;;47.40;15.15;;;11.20;99.90;;;;;;4987195;28;20038;-68
2023/10/27 05:13:52;;;;;;;34.08;14.88;;;11.20;99.90;;;;;;4988411;28;20083;-68
2023/10/27 05:16:18;;;;;;;33.58;14.80;;;11.20;99.90;;;;;;4988778;28;20018;-68
2023/10/27 05:18:44;;;;;;;43.10;14.73;;;11.20;99.90;;;;;;4988251;28;20045;-68
2023/10/27 05:21:16;;;;;;;33.17;14.48;;;11.20;99.90;;;;;;4986255;28;20406;-68
2023/10/27 05:23:42;;;;;;;36.75;14.98;;;11.20;99.90;;;;;;4988749;28;20030;-68
2023/10/27 05:26:07;;;;;;;38.00;15.30;;;11.20;99.90;;;;;;4989951;28;20037;-69
2023/10/27 05:28:33;;;;;;;44.17;15.00;;;11.20;99.90;;;;;;4992068;28;20375;-68
2023/10/27 05:30:58;;;;;;;35.15;14.25;;;11.20;99.90;;;;;;4987939;28;20030;-68
2023/10/27 05:33:24;;;;;;;40.58;15.32;;;11.20;99.90;;;;;;4989260;28;20530;-68
2023/10/27 05:35:49;;;;;;;32.00;13.45;;;11.20;99.90;;;;;;4990602;28;20022;-69
2023/10/27 05:38:15;;;;;;;32.38;14.20;;;11.20;99.90;;;;;;4990429;28;20470;-68
2023/10/27 05:40:41;;;;;;;32.08;14.20;;;11.20;99.90;;;;;;4991078;28;20109;-68
2023/10/27 05:43:07;;;;;;;33.92;14.00;;;11.10;99.90;;;;;;4990268;28;20468;-69
2023/10/27 05:45:33;;;;;;;40.92;14.95;;;11.10;99.90;;;;;;4982371;28;20038;-69
2023/10/27 05:47:58;;;;;;;48.70;15.93;;;11.10;99.90;;;;;;4981297;28;20030;-70
2023/10/27 05:50:24;;;;;;;35.08;14.27;;;11.10;99.90;;;;;;4996990;28;20509;-70
2023/10/27 05:52:49;;;;;;;35.97;14.75;;;11.10;99.90;;;;;;5013960;28;20023;-70
2023/10/27 05:55:15;;;;;;;31.63;14.07;;;11.10;99.90;;;;;;4988639;28;20029;-70
2023/10/27 05:57:41;;;;;;;33.13;13.55;;;11.00;99.90;;;;;;4994781;28;20415;-70
2023/10/27 06:00:07;;;;;;;29.77;13.38;;;11.00;99.90;;;;;;4991243;28;20033;-70
2023/10/27 06:02:33;;;;;;;37.25;14.18;;;11.10;99.90;;;;;;4990448;28;20053;-70
2023/10/27 06:04:58;;;;;;;34.80;14.68;;;11.00;99.90;;;;;;4989098;28;20490;-70
2023/10/27 06:07:24;;;;;;;30.33;13.98;;;11.00;99.90;;;;;;4978213;28;20546;-70
2023/10/27 06:09:49;;;;;;;30.77;12.88;;;11.00;99.90;;;;;;4986511;28;20105;-70
2023/10/27 06:12:15;;;;;;;34.30;13.20;;;11.00;99.90;;;;;;4992607;28;20031;-70
2023/10/27 06:14:44;;;;;;;28.27;13.32;;;11.00;99.90;;;;;;4989750;28;20034;-69
2023/10/27 06:17:11;;;;;;;31.63;13.80;;;10.90;99.90;;;;;;4988555;28;20034;-69
2023/10/27 06:19:37;;;;;;;33.13;14.13;;;10.90;99.90;;;;;;4990410;28;20488;-69
2023/10/27 06:22:03;;;;;;;44.50;15.85;;;11.00;99.90;;;;;;4985042;28;20061;-70
2023/10/27 06:24:29;;;;;;;25.30;12.38;;;11.00;99.90;;;;;;4990254;28;20409;-70
2023/10/27 06:26:55;;;;;;;34.55;15.18;;;10.90;99.90;;;;;;4989775;28;20019;-70
2023/10/27 06:29:21;;;;;;;31.58;13.40;;;10.90;99.90;;;;;;4989696;28;20903;-70
2023/10/27 06:31:47;;;;;;;27.90;13.15;;;10.90;99.90;;;;;;4990275;28;20037;-70
2023/10/27 06:34:12;;;;;;;32.42;13.07;;;10.90;99.90;;;;;;4988312;28;20406;-70
2023/10/27 06:36:38;;;;;;;29.45;13.52;;;10.90;99.90;;;;;;4991103;28;20037;-70
2023/10/27 06:39:03;;;;;;;34.28;14.98;;;10.90;99.90;;;;;;4980010;28;20038;-70
2023/10/27 06:41:29;;;;;;;28.48;12.98;;;10.90;99.90;;;;;;4989684;28;20494;-69
2023/10/27 06:43:54;;;;;;;33.05;14.27;;;10.90;99.90;;;;;;4990526;28;20568;-70
2023/10/27 06:46:20;;;;;;;32.50;14.73;;;10.90;99.90;;;;;;5010374;28;20113;-69
2023/10/27 06:48:46;;;;;;;34.45;14.50;;;10.90;99.90;;;;;;4984752;28;20100;-70
2023/10/27 06:51:11;;;;;;;29.20;13.60;;;10.90;99.90;;;;;;4988868;28;20038;-69
2023/10/27 06:53:37;;;;;;;33.55;14.45;;;10.90;99.90;;;;;;4985214;28;20042;-70
2023/10/27 06:56:04;;;;;;;34.20;14.85;;;10.90;99.90;;;;;;4985382;28;20030;-70
2023/10/27 06:58:29;;;;;;;35.05;14.95;;;10.90;99.90;;;;;;4988483;28;20030;-70
2023/10/27 07:00:56;;;;;;;33.45;14.50;;;10.90;99.90;;;;;;4992869;28;20109;-70
2023/10/27 07:03:22;;;;;;;36.53;14.77;;;10.90;99.90;;;;;;4986165;28;20079;-70
2023/10/27 07:05:47;;;;;;;29.27;13.10;;;10.90;99.90;;;;;;5015924;28;20475;-70
2023/10/27 07:08:13;;;;;;;32.38;14.93;;;10.90;99.90;;;;;;4989552;28;20109;-71
2023/10/27 07:10:42;;;;;;;28.02;14.15;;;11.00;99.90;;;;;;4991024;28;20394;-71
2023/10/27 07:13:08;;;;;;;31.67;14.20;;;11.00;99.90;;;;;;4991024;28;20043;-71
2023/10/27 07:15:34;;;;;;;30.20;14.25;;;11.00;99.90;;;;;;4989995;28;20031;-71
2023/10/27 07:17:59;;;;;;;37.15;14.45;;;11.00;99.90;;;;;;4990487;28;20031;-71
2023/10/27 07:20:26;;;;;;;32.05;13.75;;;11.10;99.90;;;;;;4990932;28;20030;-70
2023/10/27 07:22:51;;;;;;;33.28;15.05;;;11.10;99.90;;;;;;4987471;28;20037;-71
2023/10/27 07:25:17;;;;;;;34.35;14.60;;;11.10;99.90;;;;;;4990521;28;20022;-71
2023/10/27 07:27:43;;;;;;;33.75;14.48;;;11.20;99.90;;;;;;4990053;28;20049;-70
2023/10/27 07:30:09;;;;;;;32.00;13.93;;;11.20;99.90;;;;;;4989600;28;20316;-71
2023/10/27 07:32:34;;;;;;;31.27;13.95;;;11.20;99.90;;;;;;4990118;28;20027;-71
2023/10/27 07:35:00;;;;;;;33.47;14.30;;;11.30;99.90;;;;;;4990200;28;20041;-71
2023/10/27 07:37:25;;;;;;;37.65;15.40;;;11.30;99.90;;;;;;4990686;28;20022;-71
2023/10/27 07:39:51;;;;;;;31.35;14.88;;;11.30;99.90;;;;;;4988655;28;20027;-70
2023/10/27 07:42:16;;;;;;;28.50;13.13;;;11.40;99.90;;;;;;4989120;28;20065;-71
2023/10/27 07:44:42;;;;;;;28.73;13.07;;;11.40;99.90;;;;;;4989627;28;20022;-70
2023/10/27 07:47:07;;;;;;;28.42;12.43;;;11.50;99.90;;;;;;4988481;28;20030;-71
2023/10/27 07:49:33;;;;;;;27.85;13.55;;;11.50;99.90;;;;;;4989497;28;20042;-71
2023/10/27 07:51:59;;;;;;;29.23;13.13;;;11.50;99.90;;;;;;4989005;28;20026;-71
2023/10/27 07:54:24;;;;;;;30.13;13.07;;;11.60;99.90;;;;;;4988248;28;20489;-71
2023/10/27 07:56:50;;;;;;;25.75;11.85;;;11.60;99.90;;;;;;4981699;28;20045;-71
2023/10/27 07:59:16;;;;;;;24.60;11.82;;;11.60;99.90;;;;;;4974686;28;20536;-71
2023/10/27 08:01:41;;;;;;;26.05;12.57;;;11.60;99.90;;;;;;4991421;28;20061;-71
2023/10/27 08:04:07;;;;;;;28.95;13.10;;;11.50;99.90;;;;;;4987142;28;20023;-71
2023/10/27 08:06:33;;;;;;;22.83;11.40;;;11.60;99.90;;;;;;4985328;28;20081;-71
2023/10/27 08:08:59;;;;;;;24.27;12.15;;;11.60;99.90;;;;;;4986640;28;20038;-71
2023/10/27 08:11:24;;;;;;;21.95;11.75;;;11.60;99.90;;;;;;4991913;28;20022;-71
2023/10/27 08:13:50;;;;;;;25.55;11.43;;;11.60;99.90;;;;;;4984492;28;20030;-71
2023/10/27 08:16:15;;;;;;;26.30;11.93;;;11.50;99.90;;;;;;4986665;28;20062;-71
2023/10/27 08:18:41;;;;;;;21.92;11.00;;;11.60;99.90;;;;;;4985265;28;20401;-70
2023/10/27 08:21:07;;;;;;;27.95;10.82;;;11.60;99.90;;;;;;4990043;28;20619;-71
2023/10/27 08:23:33;;;;;;;27.00;11.15;;;11.60;99.90;;;;;;4989548;28;20042;-70
2023/10/27 08:25:58;;;;;;;27.48;12.15;;;11.60;99.90;;;;;;4983153;28;20028;-71
2023/10/27 08:28:24;;;;;;;23.60;11.55;;;11.60;99.90;;;;;;4986929;28;20053;-70
2023/10/27 08:30:50;;;;;;;22.08;10.32;;;11.60;99.90;;;;;;4989721;28;20030;-70
2023/10/27 08:33:15;;;;;;;18.30;9.30;;;11.70;99.90;;;;;;4989172;28;20030;-71
2023/10/27 08:35:41;;;;;;;18.13;9.77;;;11.70;99.90;;;;;;4983564;28;20022;-70
2023/10/27 08:38:07;;;;;;;21.02;10.40;;;11.60;99.90;;;;;;4990636;28;20038;-71
2023/10/27 08:40:33;;;;;;;21.48;10.13;;;11.70;99.90;;;;;;4989460;28;20449;-71
2023/10/27 08:42:59;;;;;;;20.90;10.50;;;11.70;99.90;;;;;;4987879;28;20469;-71
2023/10/27 08:45:27;;;;;;;17.92;8.98;;;11.70;99.90;;;;;;4986541;28;20030;-71
2023/10/27 08:47:53;;;;;;;17.65;8.55;;;11.70;99.90;;;;;;4991439;28;20038;-71
2023/10/27 08:50:19;;;;;;;15.77;8.55;;;11.80;99.90;;;;;;4987503;28;20119;-71
2023/10/27 08:52:48;;;;;;;14.40;8.05;;;11.70;99.90;;;;;;4995455;28;20025;-71
2023/10/27 08:55:14;;;;;;;14.93;7.82;;;11.80;99.90;;;;;;4994736;28;20033;-71
2023/10/27 08:57:39;;;;;;;14.82;7.88;;;11.80;99.90;;;;;;4994618;28;20030;-71
2023/10/27 09:00:07;;;;;;;16.38;8.38;;;11.80;99.90;;;;;;4993743;28;20061;-71
2023/10/27 09:02:33;;;;;;;15.50;9.27;;;11.80;99.90;;;;;;4995428;28;20025;-71
2023/10/27 09:05:08;;;;;;;14.70;8.00;;;11.80;99.90;;;;;;4994701;28;20022;-71
2023/10/27 09:07:35;;;;;;;15.35;7.97;;;11.80;99.90;;;;;;4997407;28;20031;-71
2023/10/27 09:10:02;;;;;;;17.35;8.85;;;11.80;99.90;;;;;;4993905;28;20031;-71
2023/10/27 09:12:30;;;;;;;17.60;9.30;;;11.90;99.90;;;;;;4995323;28;20062;-71
2023/10/27 09:15:00;;;;;;;17.67;9.05;;;11.90;99.90;;;;;;4995070;28;20030;-71
2023/10/27 09:17:26;;;;;;;16.92;9.23;;;11.90;99.90;;;;;;4993614;28;20098;-71
2023/10/27 09:20:06;;;;;;;18.30;8.88;;;11.90;99.90;;;;;;5006904;28;20041;-71
2023/10/27 09:22:32;;;;;;;15.75;9.02;;;12.00;99.90;;;;;;4992889;28;20097;-71
2023/10/27 09:25:17;;;;;;;19.20;10.55;;;12.00;99.90;;;;;;4989657;28;20114;-71
2023/10/27 09:27:46;;;;;;;17.15;9.10;;;12.10;99.90;;;;;;4991855;28;20080;-71
2023/10/27 09:30:35;;;;;;;19.48;9.60;;;12.10;99.90;;;;;;4993940;28;20027;-71
2023/10/27 09:33:20;;;;;;;15.52;8.60;;;12.10;99.90;;;;;;4998664;28;20543;-71
2023/10/27 09:35:47;;;;;;;14.15;7.97;;;12.10;99.90;;;;;;4991526;28;20026;-70
2023/10/27 09:38:13;;;;;;;16.02;9.02;;;12.10;99.90;;;;;;4989054;28;20040;-70
2023/10/27 09:40:40;;;;;;;13.23;8.43;;;12.10;99.90;;;;;;4983715;28;20034;-71
2023/10/27 09:43:19;;;;;;;15.80;8.57;;;12.20;99.90;;;;;;4985018;28;20049;-70
2023/10/27 09:45:57;;;;;;;15.90;9.18;;;12.20;99.90;;;;;;4987463;28;20517;-70
2023/10/27 09:48:25;;;;;;;15.73;9.48;;;12.20;99.90;;;;;;4990304;28;20080;-71
2023/10/27 09:51:00;;;;;;;18.05;9.75;;;12.30;99.90;;;;;;4988347;28;20026;-70
2023/10/27 09:53:30;;;;;;;15.02;9.13;;;12.20;99.90;;;;;;4991346;28;20034;-71
2023/10/27 09:55:58;;;;;;;15.50;9.93;;;12.30;99.90;;;;;;4993985;28;20034;-70
2023/10/27 09:58:26;;;;;;;13.50;8.88;;;12.30;99.90;;;;;;4987643;28;20026;-70
2023/10/27 10:00:53;;;;;;;14.18;9.38;;;12.20;99.90;;;;;;4993521;28;20035;-70
2023/10/27 10:03:23;;;;;;;14.90;9.23;;;12.30;99.90;;;;;;4985409;28;20019;-70
2023/10/27 10:06:12;;;;;;;16.42;9.82;;;12.30;99.90;;;;;;4980196;28;20022;-70
2023/10/27 10:08:38;;;;;;;14.95;9.60;;;12.30;99.90;;;;;;4982948;28;20399;-70
2023/10/27 10:11:11;;;;;;;15.27;9.00;;;12.30;99.90;;;;;;4994050;28;20031;-69
2023/10/27 10:13:37;;;;;;;15.10;9.20;;;12.30;99.90;;;;;;4988201;28;20031;-70
2023/10/27 10:16:03;;;;;;;14.98;8.90;;;12.30;99.90;;;;;;4984026;28;20030;-70
2023/10/27 10:18:56;;;;;;;13.77;8.63;;;12.30;99.90;;;;;;4971368;28;20041;-70
2023/10/27 10:21:33;;;;;;;16.60;9.32;;;12.30;99.90;;;;;;4987059;28;20023;-69
2023/10/27 10:24:06;;;;;;;12.52;7.90;;;12.30;99.90;;;;;;4989571;28;20498;-69
2023/10/27 10:27:04;;;;;;;15.30;9.68;;;12.30;99.90;;;;;;4988001;28;20038;-70
2023/10/27 10:29:32;;;;;;;15.38;9.75;;;12.30;99.90;;;;;;4997217;28;20165;-69
2023/10/27 10:32:29;;;;;;;17.35;11.23;;;12.40;99.90;;;;;;4988379;28;20120;-69
2023/10/27 10:35:23;;;;;;;14.30;9.77;;;12.40;99.90;;;;;;4989822;28;20032;-69
2023/10/27 10:37:51;;;;;;;17.67;11.30;;;12.40;99.90;;;;;;4975118;28;20042;-71
2023/10/27 10:40:26;;;;;;;15.73;9.65;;;12.40;99.90;;;;;;4986420;28;20058;-71
2023/10/27 10:43:19;;;;;;;14.52;8.80;;;12.40;99.90;;;;;;4989986;28;20039;-71
2023/10/27 10:45:50;;;;;;;;;;;12.40;99.90;;;;;;4981089;28;20440;-71
2023/10/27 10:48:16;;;;;;;12.18;7.50;;;12.40;99.90;;;;;;4990697;28;19917;-71
2023/10/27 10:50:43;;;;;;;11.88;8.10;;;12.50;99.90;;;;;;4986467;28;20102;-70
2023/10/27 10:53:10;;;;;;;13.93;7.60;;;12.50;99.90;;;;;;4988600;28;20475;-72
2023/10/27 10:55:36;;;;;;;11.27;6.97;;;12.50;99.90;;;;;;4997812;28;20030;-71
2023/10/27 10:58:02;;;;;;;11.15;6.82;;;12.50;99.90;;;;;;5005054;28;20097;-72
2023/10/27 11:00:36;;;;;;;9.43;6.35;;;12.60;99.90;;;;;;4987568;28;20030;-70
2023/10/27 11:03:09;;;;;;;10.73;6.88;;;12.60;99.90;;;;;;4985236;28;20034;-71
2023/10/27 11:05:36;;;;;;;12.55;6.65;;;12.50;99.90;;;;;;4991651;28;20030;-71
2023/10/27 11:08:02;;;;;;;11.35;7.47;;;12.50;99.90;;;;;;4997809;28;20087;-70
2023/10/27 11:10:28;;;;;;;13.25;7.55;;;12.50;99.90;;;;;;4992521;28;20145;-70
2023/10/27 11:12:54;;;;;;;8.95;6.47;;;12.50;99.90;;;;;;4990448;28;20402;-71
2023/10/27 11:15:40;;;;;;;9.63;6.70;;;12.60;99.90;;;;;;4989032;28;20034;-72
2023/10/27 11:18:10;;;;;;;8.60;5.93;;;12.60;99.90;;;;;;4988602;28;20019;-71
2023/10/27 11:20:36;;;;;;;11.07;6.85;;;12.60;99.90;;;;;;4988585;28;20027;-70
2023/10/27 11:23:12;;;;;;;10.52;6.82;;;12.70;99.90;;;;;;4984051;28;20108;-71
2023/10/27 11:25:40;;;;;;;10.98;7.25;;;12.70;99.90;;;;;;4980773;28;20086;-71
2023/10/27 11:31:13;;;;;;;8.80;5.82;;;12.70;99.90;;;;;;4951699;23;20126;-71
2023/10/27 11:34:01;;;;;;;9.27;6.35;;;12.70;99.90;;;;;;4939316;28;20031;-71
2023/10/27 11:36:32;;;;;;;9.48;6.10;;;12.80;99.90;;;;;;4935440;28;20025;-70
2023/10/27 11:39:14;;;;;;;8.70;5.43;;;12.80;99.90;;;;;;4940624;28;20040;-69
2023/10/27 11:41:41;;;;;;;8.57;5.38;;;12.80;99.90;;;;;;4929532;28;20027;-70
2023/10/27 11:44:06;;;;;;;7.78;4.85;;;12.80;99.90;;;;;;4928397;28;20089;-70
2023/10/27 11:46:33;;;;;;;6.97;5.45;;;12.80;99.90;;;;;;4925390;28;20032;-71
2023/10/27 11:48:59;;;;;;;9.18;5.38;;;12.80;99.90;;;;;;4922244;29;20043;-71
2023/10/27 11:51:24;;;;;;;7.50;5.70;;;12.80;99.90;;;;;;4923788;29;20760;-71
2023/10/27 11:53:51;;;;;;;6.65;5.07;;;12.90;99.90;;;;;;4919668;29;20510;-70
2023/10/27 11:56:17;;;;;;;7.38;5.13;;;12.90;99.90;;;;;;4925065;28;20511;-71
2023/10/27 11:58:43;;;;;;;6.93;4.22;;;12.90;99.90;;;;;;4919800;29;20031;-71
2023/10/27 12:01:09;;;;;;;6.18;3.88;;;12.90;99.90;;;;;;4923346;29;20488;-71
2023/10/27 12:03:34;;;;;;;6.32;4.68;;;12.90;99.90;;;;;;4922303;29;20040;-71
2023/10/27 12:06:00;;;;;;;6.63;4.03;;;12.90;99.90;;;;;;4951346;28;20022;-71
2023/10/27 12:08:26;;;;;;;6.47;4.75;;;12.90;99.90;;;;;;4934411;29;20074;-71
2023/10/27 12:10:52;;;;;;;8.45;5.05;;;12.80;99.90;;;;;;4936429;28;20059;-71
2023/10/27 12:13:20;;;;;;;7.80;5.70;;;12.80;99.90;;;;;;4927904;28;20463;-71
2023/10/27 12:15:47;;;;;;;9.75;6.10;;;12.90;99.90;;;;;;4925018;28;20026;-71
2023/10/27 12:18:16;;;;;;;8.75;5.22;;;12.90;99.90;;;;;;4927507;28;20030;-71
2023/10/27 12:20:42;;;;;;;6.90;5.15;;;12.90;99.90;;;;;;4921844;29;20086;-71
2023/10/27 12:23:11;;;;;;;10.75;6.57;;;12.80;99.90;;;;;;4920146;29;20043;-71
2023/10/27 12:25:37;;;;;;;8.35;5.50;;;12.90;99.90;;;;;;4923195;29;20146;-71
2023/10/27 12:28:04;;;;;;;7.93;4.57;;;12.80;99.90;;;;;;4918180;29;20442;-71
2023/10/27 12:30:30;;;;;;;7.80;5.93;;;12.80;99.90;;;;;;4924950;29;20060;-71
2023/10/27 12:32:56;;;;;;;7.90;6.15;;;12.80;99.90;;;;;;4926148;29;20031;-71